Terminal Aerodrome Forecast
Issued by NWS

Home | Current Version | Previous Version | Text Only | Print | Product List | Glossary On
Versions: 1 2 3 4 5 6 7 8 9 10 11 12 13 14 15 16 17 18 19 20 21 22 23 24
570
FTUS44 KCRP 221224 AAA
TAFALI
TAF AMD
KALI 221224Z 2212/2312 21005KT 4SM BR OVC008
      TEMPO 2212/2214 1/4SM FG OVC003
     FM221500 31006KT P6SM BKN020
     FM221600 35010KT P6SM BKN035
     FM221900 36015G20KT P6SM SKC
     FM230100 35008KT P6SM SKC=

USA.gov is the U.S. government's official web portal to all federal, state and local government web resources and services.